Time;durP1;ratioP1;P1;durP2;ratioP2;P2;SDS_P1;SDS_P2;PMS_P1;PMS_P2;Temp;Humidity;BMP_temperature;BMP_pressure;BME280_temperature;BME280_humidity;BME280_pressure;Samples;Min_cycle;Max_cycle;Signal;HPM_P1;HPM_P2
2020/12/19 00:00:30;;;;;;;11.00;5.60;;;6.40;99.90;;;;;;5114739;28;20031;-75
2020/12/19 00:02:56;;;;;;;9.70;5.57;;;6.40;99.90;;;;;;5114222;28;20035;-75
2020/12/19 00:05:22;;;;;;;11.90;5.28;;;6.40;99.90;;;;;;5115423;28;20138;-74
2020/12/19 00:07:47;;;;;;;8.50;4.55;;;6.30;99.90;;;;;;5115985;28;20027;-75
2020/12/19 00:10:13;;;;;;;8.70;4.18;;;6.40;99.90;;;;;;5114388;28;20031;-74
2020/12/19 00:12:38;;;;;;;11.25;4.78;;;6.40;99.90;;;;;;5115537;28;20066;-76
2020/12/19 00:15:04;;;;;;;10.38;4.80;;;6.40;99.90;;;;;;5116164;28;20042;-76
2020/12/19 00:17:29;;;;;;;10.23;4.32;;;6.40;99.90;;;;;;5113932;28;20016;-75
2020/12/19 00:19:55;;;;;;;8.60;4.68;;;6.30;99.90;;;;;;5114665;28;20114;-74
2020/12/19 00:22:21;;;;;;;11.27;5.20;;;6.30;99.90;;;;;;5115988;28;20028;-75
2020/12/19 00:24:47;;;;;;;10.07;4.88;;;6.30;99.90;;;;;;5115974;28;20020;-75
2020/12/19 00:27:13;;;;;;;11.73;4.88;;;6.30;99.90;;;;;;5115563;28;20039;-76
2020/12/19 00:29:38;;;;;;;11.60;5.50;;;6.20;99.90;;;;;;5115981;28;20464;-76
2020/12/19 00:32:05;;;;;;;12.15;4.60;;;6.10;99.90;;;;;;5115526;28;20012;-75
2020/12/19 00:34:31;;;;;;;9.52;5.05;;;6.10;99.90;;;;;;5115873;28;20016;-75
2020/12/19 00:36:56;;;;;;;10.57;5.30;;;6.10;99.90;;;;;;5114385;28;20020;-75
2020/12/19 00:39:22;;;;;;;10.38;4.32;;;6.00;99.90;;;;;;5114391;28;20436;-75
2020/12/19 00:41:47;;;;;;;9.30;4.90;;;6.10;99.90;;;;;;5116034;28;20099;-73
2020/12/19 00:44:13;;;;;;;10.90;4.75;;;6.10;99.90;;;;;;5115748;28;20148;-73
2020/12/19 00:46:38;;;;;;;9.20;4.70;;;6.10;99.90;;;;;;5115287;28;20102;-74
2020/12/19 00:49:04;;;;;;;12.02;4.63;;;6.00;99.90;;;;;;5116059;28;20020;-74
2020/12/19 00:51:30;;;;;;;10.32;4.93;;;6.10;99.90;;;;;;5115643;28;20020;-75
2020/12/19 00:53:55;;;;;;;11.43;4.80;;;6.00;99.90;;;;;;5115688;28;20111;-75
2020/12/19 00:56:24;;;;;;;8.55;4.20;;;6.00;99.90;;;;;;5114995;28;20051;-75
2020/12/19 00:58:50;;;;;;;11.63;5.15;;;6.00;99.90;;;;;;5116370;28;20020;-74
2020/12/19 01:01:19;;;;;;;8.45;4.32;;;6.00;99.90;;;;;;5120857;28;20015;-74
2020/12/19 01:03:45;;;;;;;10.90;4.53;;;6.00;99.90;;;;;;5121815;27;20023;-75
2020/12/19 01:06:18;;;;;;;11.48;4.90;;;6.00;99.90;;;;;;5121793;27;20103;-75
2020/12/19 01:08:45;;;;;;;8.35;4.50;;;5.90;99.90;;;;;;5121632;28;20019;-76
2020/12/19 01:11:17;;;;;;;15.57;5.13;;;5.90;99.90;;;;;;5120793;28;20023;-76
2020/12/19 01:13:44;;;;;;;8.98;4.53;;;5.90;99.90;;;;;;5121701;27;20059;-75
2020/12/19 01:16:15;;;;;;;10.77;4.97;;;5.90;99.90;;;;;;5122374;27;20027;-75
2020/12/19 01:18:41;;;;;;;8.95;4.70;;;5.90;99.90;;;;;;5121315;28;20110;-73
2020/12/19 01:21:14;;;;;;;11.27;4.78;;;5.90;99.90;;;;;;5122526;27;20018;-73
2020/12/19 01:23:39;;;;;;;10.50;4.68;;;5.90;99.90;;;;;;5122171;27;20120;-75
2020/12/19 01:26:05;;;;;;;11.98;5.00;;;5.80;99.90;;;;;;5120931;28;20035;-75
2020/12/19 01:28:31;;;;;;;9.02;5.20;;;5.80;99.90;;;;;;5122313;28;20030;-75
2020/12/19 01:30:56;;;;;;;10.95;5.32;;;5.80;99.90;;;;;;5122862;28;20032;-74
2020/12/19 01:33:22;;;;;;;10.65;5.22;;;5.70;99.90;;;;;;5122329;28;20031;-75
2020/12/19 01:35:47;;;;;;;11.43;5.25;;;5.70;99.90;;;;;;5122915;28;20035;-75
2020/12/19 01:38:13;;;;;;;14.18;4.78;;;5.70;99.90;;;;;;5120226;28;20024;-73
2020/12/19 01:40:38;;;;;;;9.85;4.78;;;5.70;99.90;;;;;;5121664;28;20015;-74
2020/12/19 01:43:04;;;;;;;10.95;4.47;;;5.70;99.90;;;;;;5122514;28;20364;-73
2020/12/19 01:45:30;;;;;;;11.35;4.88;;;5.70;99.90;;;;;;5121593;28;20533;-76
2020/12/19 01:47:56;;;;;;;10.05;4.22;;;5.60;99.90;;;;;;5120300;28;20555;-74
2020/12/19 01:50:22;;;;;;;14.00;5.28;;;5.60;99.90;;;;;;5121058;28;20051;-72
2020/12/19 01:52:48;;;;;;;12.13;5.63;;;5.60;99.90;;;;;;5121644;27;20062;-73
2020/12/19 01:55:14;;;;;;;14.95;6.43;;;5.60;99.90;;;;;;5121807;27;20023;-72
2020/12/19 01:57:41;;;;;;;12.00;4.93;;;5.60;99.90;;;;;;5122043;27;20372;-73
2020/12/19 02:00:07;;;;;;;12.00;4.65;;;5.60;99.90;;;;;;5121662;28;20020;-73
2020/12/19 02:02:33;;;;;;;11.27;5.20;;;5.60;99.90;;;;;;5119855;28;20041;-74
2020/12/19 02:04:58;;;;;;;12.10;5.25;;;5.60;99.90;;;;;;5120435;28;20414;-74
2020/12/19 02:07:24;;;;;;;9.90;5.25;;;5.60;99.90;;;;;;5121662;27;20030;-74
2020/12/19 02:09:51;;;;;;;11.85;5.47;;;5.50;99.90;;;;;;5119897;28;20015;-74
2020/12/19 02:12:18;;;;;;;12.82;5.78;;;5.50;99.90;;;;;;5118730;27;20423;-74
2020/12/19 02:14:44;;;;;;;12.90;6.13;;;5.50;99.90;;;;;;5118708;27;20050;-74
2020/12/19 02:17:12;;;;;;;11.77;5.78;;;5.50;99.90;;;;;;5118220;28;20023;-73
2020/12/19 02:19:38;;;;;;;11.32;4.65;;;5.50;99.90;;;;;;5117818;28;20024;-73
2020/12/19 02:22:06;;;;;;;13.63;4.82;;;5.50;99.90;;;;;;5116989;28;20119;-73
2020/12/19 02:24:33;;;;;;;12.80;6.15;;;5.40;99.90;;;;;;5116830;28;20026;-74
2020/12/19 02:26:59;;;;;;;12.38;5.80;;;5.50;99.90;;;;;;5116049;28;20410;-74
2020/12/19 02:29:27;;;;;;;11.25;5.30;;;5.40;99.90;;;;;;5116677;28;20019;-74
2020/12/19 02:31:55;;;;;;;14.50;5.83;;;5.50;99.90;;;;;;5118212;28;20111;-75
2020/12/19 02:34:21;;;;;;;15.88;6.13;;;5.50;99.90;;;;;;5117601;28;20343;-72
2020/12/19 02:36:47;;;;;;;15.85;6.03;;;5.50;99.90;;;;;;5116469;28;20376;-72
2020/12/19 02:39:12;;;;;;;14.90;6.07;;;5.50;99.90;;;;;;5117363;28;20046;-74
2020/12/19 02:41:39;;;;;;;14.20;5.63;;;5.50;99.90;;;;;;5117630;28;20027;-75
2020/12/19 02:44:07;;;;;;;16.67;6.63;;;5.40;99.90;;;;;;5117433;27;20031;-75
2020/12/19 02:46:33;;;;;;;14.23;6.22;;;5.40;99.90;;;;;;5116593;28;20043;-75
2020/12/19 02:48:59;;;;;;;13.25;5.88;;;5.50;99.90;;;;;;5118293;28;20027;-76
2020/12/19 02:51:24;;;;;;;14.30;6.88;;;5.40;99.90;;;;;;5116158;28;20027;-76
2020/12/19 02:53:50;;;;;;;17.90;7.05;;;5.40;99.90;;;;;;5118038;28;20065;-75
2020/12/19 02:56:19;;;;;;;15.05;6.40;;;5.40;99.90;;;;;;5117717;28;20046;-75
2020/12/19 02:58:44;;;;;;;14.93;6.13;;;5.40;99.90;;;;;;5117257;28;20415;-75
2020/12/19 03:01:10;;;;;;;16.23;6.45;;;5.40;99.90;;;;;;5116764;28;20008;-75
2020/12/19 03:03:35;;;;;;;14.35;6.28;;;5.50;99.90;;;;;;5116642;28;20109;-76
2020/12/19 03:06:01;;;;;;;16.75;6.63;;;5.50;99.90;;;;;;5117736;27;20031;-74
2020/12/19 03:08:26;;;;;;;17.02;6.65;;;5.50;99.90;;;;;;5117176;28;20023;-74
2020/12/19 03:10:52;;;;;;;17.42;7.03;;;5.50;99.90;;;;;;5117847;28;20028;-74
2020/12/19 03:13:17;;;;;;;16.38;7.03;;;5.40;99.90;;;;;;5117679;28;20032;-74
2020/12/19 03:15:43;;;;;;;16.70;6.18;;;5.40;99.90;;;;;;5117062;28;20031;-74
2020/12/19 03:18:08;;;;;;;14.70;6.43;;;5.40;99.90;;;;;;5116247;28;20027;-75
2020/12/19 03:20:34;;;;;;;18.30;6.13;;;5.50;99.90;;;;;;5116318;28;20019;-74
2020/12/19 03:22:59;;;;;;;17.25;6.20;;;5.50;99.90;;;;;;5115687;28;20130;-75
2020/12/19 03:25:26;;;;;;;14.75;5.78;;;5.40;99.90;;;;;;5114617;28;20032;-73
2020/12/19 03:27:52;;;;;;;14.98;6.30;;;5.40;99.90;;;;;;5114870;28;20023;-73
2020/12/19 03:30:18;;;;;;;15.25;6.50;;;5.50;99.90;;;;;;5114661;28;20028;-72
2020/12/19 03:32:47;;;;;;;15.30;6.82;;;5.50;99.90;;;;;;5117185;28;20028;-75
2020/12/19 03:35:12;;;;;;;14.98;7.22;;;5.50;99.90;;;;;;5115239;28;20043;-74
2020/12/19 03:37:38;;;;;;;15.38;5.72;;;5.40;99.90;;;;;;5115551;28;20035;-74
2020/12/19 03:40:04;;;;;;;14.25;6.30;;;5.50;99.90;;;;;;5116125;28;20035;-73
2020/12/19 03:42:29;;;;;;;17.90;7.00;;;5.50;99.90;;;;;;5115807;28;20532;-73
2020/12/19 03:44:55;;;;;;;17.00;7.25;;;5.50;99.90;;;;;;5117084;28;20047;-72
2020/12/19 03:47:21;;;;;;;15.40;6.93;;;5.40;99.90;;;;;;5115352;28;20034;-72
2020/12/19 03:49:47;;;;;;;15.93;6.80;;;5.40;99.90;;;;;;5115348;28;20020;-74
2020/12/19 03:52:12;;;;;;;15.90;6.53;;;5.40;99.90;;;;;;5114902;28;20065;-75
2020/12/19 03:54:38;;;;;;;19.90;7.03;;;5.40;99.90;;;;;;5115444;28;20088;-76
2020/12/19 03:57:03;;;;;;;17.27;6.80;;;5.40;99.90;;;;;;5116221;28;20070;-74
2020/12/19 03:59:29;;;;;;;17.08;6.90;;;5.40;99.90;;;;;;5113990;28;20422;-74
2020/12/19 04:01:54;;;;;;;15.63;7.15;;;5.40;99.90;;;;;;5116133;28;20337;-74
2020/12/19 04:04:20;;;;;;;15.40;7.03;;;5.40;99.90;;;;;;5115220;28;20027;-76
2020/12/19 04:06:45;;;;;;;15.55;6.38;;;5.40;99.90;;;;;;5113936;28;20115;-75
2020/12/19 04:09:11;;;;;;;17.65;7.47;;;5.50;99.90;;;;;;5114880;28;20023;-74
2020/12/19 04:11:36;;;;;;;18.30;6.85;;;5.50;99.90;;;;;;5115178;28;20422;-74
2020/12/19 04:14:02;;;;;;;15.13;6.72;;;5.50;99.90;;;;;;5113811;28;20020;-74
2020/12/19 04:16:27;;;;;;;14.85;5.93;;;5.50;99.90;;;;;;5115918;28;20098;-74
2020/12/19 04:18:53;;;;;;;17.58;7.15;;;5.50;99.90;;;;;;5115582;28;20020;-74
2020/12/19 04:21:18;;;;;;;12.57;5.63;;;5.50;99.90;;;;;;5115534;28;20027;-73
2020/12/19 04:23:44;;;;;;;16.73;6.68;;;5.50;99.90;;;;;;5114974;28;20034;-74
2020/12/19 04:26:09;;;;;;;18.40;7.28;;;5.50;99.90;;;;;;5115702;28;20028;-74
2020/12/19 04:28:35;;;;;;;14.55;6.25;;;5.60;99.90;;;;;;5114789;28;20024;-75
2020/12/19 04:31:00;;;;;;;14.02;6.35;;;5.60;99.90;;;;;;5116066;28;20449;-75
2020/12/19 04:33:26;;;;;;;18.90;6.15;;;5.60;99.90;;;;;;5115073;28;20027;-74
2020/12/19 04:35:51;;;;;;;15.73;6.45;;;5.60;99.90;;;;;;5113835;28;20024;-73
2020/12/19 04:38:17;;;;;;;16.63;6.75;;;5.60;99.90;;;;;;5113977;28;20477;-73
2020/12/19 04:40:43;;;;;;;16.70;6.93;;;5.60;99.90;;;;;;5115599;28;20440;-73
2020/12/19 04:43:14;;;;;;;14.45;5.97;;;5.60;99.90;;;;;;5114140;28;20023;-73
2020/12/19 04:45:42;;;;;;;13.05;6.15;;;5.60;99.90;;;;;;5116000;28;20024;-75
2020/12/19 04:48:08;;;;;;;13.68;6.10;;;5.60;99.90;;;;;;5115485;28;20020;-74
2020/12/19 04:50:38;;;;;;;25.33;7.95;;;5.60;99.90;;;;;;5113813;28;20035;-75
2020/12/19 04:53:18;;;;;;;13.10;5.60;;;5.60;99.90;;;;;;5115963;28;20023;-73
2020/12/19 04:55:44;;;;;;;15.30;7.07;;;5.60;99.90;;;;;;5114708;28;20094;-73
2020/12/19 04:58:12;;;;;;;15.88;6.18;;;5.60;99.90;;;;;;5116004;28;20415;-75
2020/12/19 05:00:39;;;;;;;15.00;6.53;;;5.70;99.90;;;;;;5114240;28;20012;-73
2020/12/19 05:03:04;;;;;;;17.90;6.93;;;5.70;99.90;;;;;;5114362;28;20016;-73
2020/12/19 05:05:30;;;;;;;17.17;6.38;;;5.70;99.90;;;;;;5116038;28;20068;-73
2020/12/19 05:07:55;;;;;;;14.25;6.20;;;5.70;99.90;;;;;;5113987;28;20034;-74
2020/12/19 05:10:21;;;;;;;15.73;6.75;;;5.60;99.90;;;;;;5113808;28;20131;-74
2020/12/19 05:12:56;;;;;;;18.23;7.30;;;5.60;99.90;;;;;;5115359;28;20055;-75
2020/12/19 05:15:22;;;;;;;15.15;6.57;;;5.70;99.90;;;;;;5115312;28;20050;-75
2020/12/19 05:17:56;;;;;;;16.55;7.35;;;5.70;99.90;;;;;;5115663;28;20016;-75
2020/12/19 05:20:23;;;;;;;16.90;7.45;;;5.70;99.90;;;;;;5113530;28;20034;-74
2020/12/19 05:22:50;;;;;;;17.23;7.80;;;5.70;99.90;;;;;;5113775;28;20016;-73
2020/12/19 05:25:18;;;;;;;18.50;7.40;;;5.70;99.90;;;;;;5113289;28;20021;-73
2020/12/19 05:27:45;;;;;;;15.65;6.60;;;5.70;99.90;;;;;;5114344;28;20076;-74
2020/12/19 05:30:11;;;;;;;15.82;6.80;;;5.70;99.90;;;;;;5115040;28;20078;-74
2020/12/19 05:32:43;;;;;;;16.50;7.57;;;5.70;99.90;;;;;;5113453;28;20020;-73
2020/12/19 05:35:09;;;;;;;16.27;6.78;;;5.70;99.90;;;;;;5114894;28;20035;-74
2020/12/19 05:37:35;;;;;;;15.10;7.18;;;5.70;99.90;;;;;;5114180;28;20028;-73
2020/12/19 05:40:07;;;;;;;13.88;7.47;;;5.70;99.90;;;;;;5115017;28;20012;-74
2020/12/19 05:42:32;;;;;;;17.52;7.35;;;5.70;99.90;;;;;;5114585;28;20373;-73
2020/12/19 05:44:58;;;;;;;15.15;6.30;;;5.70;99.90;;;;;;5113359;28;20119;-72
2020/12/19 05:47:23;;;;;;;17.42;7.13;;;5.80;99.90;;;;;;5118967;28;20024;-75
2020/12/19 05:49:48;;;;;;;18.05;7.43;;;5.80;99.90;;;;;;5117567;28;20114;-73
2020/12/19 05:52:16;;;;;;;15.50;6.57;;;5.80;99.90;;;;;;5118720;28;20020;-73
2020/12/19 05:54:44;;;;;;;17.08;7.47;;;5.70;99.90;;;;;;5117080;28;20055;-73
2020/12/19 05:57:15;;;;;;;17.65;7.57;;;5.70;99.90;;;;;;5119087;28;20076;-73
2020/12/19 05:59:41;;;;;;;15.90;7.15;;;5.70;99.90;;;;;;5118414;28;20020;-75
2020/12/19 06:02:08;;;;;;;13.35;6.20;;;5.70;99.90;;;;;;5119221;28;20027;-74
2020/12/19 06:04:37;;;;;;;14.63;6.88;;;5.70;99.90;;;;;;5118426;28;20027;-74
2020/12/19 06:07:03;;;;;;;17.77;7.22;;;5.80;99.90;;;;;;5118222;28;20019;-74
2020/12/19 06:09:29;;;;;;;15.55;6.22;;;5.80;99.90;;;;;;5118045;28;20114;-74
2020/12/19 06:12:03;;;;;;;19.88;7.32;;;5.70;99.90;;;;;;5117020;28;20050;-75
2020/12/19 06:14:39;;;;;;;13.57;6.40;;;5.70;99.90;;;;;;5118188;28;20024;-74
2020/12/19 06:17:13;;;;;;;17.38;6.03;;;5.80;99.90;;;;;;5116835;28;20070;-73
2020/12/19 06:19:42;;;;;;;15.68;6.65;;;5.70;99.90;;;;;;5116265;28;20023;-74
2020/12/19 06:22:07;;;;;;;;;;;5.70;99.90;;;;;;5117623;28;20020;-74
2020/12/19 06:24:39;;;;;;;14.50;5.95;;;5.70;99.90;;;;;;5118518;28;19970;-75
2020/12/19 06:27:32;;;;;;;16.88;7.05;;;5.70;99.90;;;;;;5118033;28;20038;-75
2020/12/19 06:29:58;;;;;;;14.88;6.57;;;5.80;99.90;;;;;;5110432;28;20036;-76
2020/12/19 06:32:26;;;;;;;14.55;6.38;;;5.80;99.90;;;;;;5118241;28;20103;-74
2020/12/19 06:35:01;;;;;;;12.40;6.32;;;5.80;99.90;;;;;;5118256;28;20088;-75
2020/12/19 06:37:28;;;;;;;16.63;6.55;;;5.80;99.90;;;;;;5117081;28;20437;-75
2020/12/19 06:40:07;;;;;;;15.15;6.32;;;5.70;99.90;;;;;;5117789;28;20042;-73
2020/12/19 06:42:33;;;;;;;15.30;6.30;;;5.70;99.90;;;;;;5116255;28;20168;-75
2020/12/19 06:45:28;;;;;;;14.30;6.40;;;5.70;99.90;;;;;;5117325;28;20500;-76
2020/12/19 06:47:55;;;;;;;13.68;5.53;;;5.80;99.90;;;;;;5116513;28;20016;-75
2020/12/19 06:50:22;;;;;;;14.65;6.75;;;5.70;99.90;;;;;;5117734;27;20055;-75
2020/12/19 06:52:58;;;;;;;15.18;6.97;;;5.70;99.90;;;;;;5115248;28;20023;-75
2020/12/19 06:55:28;;;;;;;17.33;7.00;;;5.70;99.90;;;;;;5115548;28;20020;-75
2020/12/19 06:57:56;;;;;;;15.15;6.80;;;5.70;99.90;;;;;;5116211;28;20026;-75
2020/12/19 07:00:29;;;;;;;16.83;7.07;;;5.70;99.90;;;;;;5117259;28;20506;-75
2020/12/19 07:02:59;;;;;;;16.23;5.82;;;5.80;99.90;;;;;;5115601;28;20053;-76
2020/12/19 07:05:30;;;;;;;14.10;6.78;;;5.80;99.90;;;;;;5117674;28;20484;-76
2020/12/19 07:08:22;;;;;;;14.98;6.68;;;5.90;99.90;;;;;;5117499;28;20384;-75
2020/12/19 07:10:49;;;;;;;11.98;5.63;;;5.90;99.90;;;;;;5116210;28;20085;-73
2020/12/19 07:13:15;;;;;;;16.85;6.40;;;5.90;99.90;;;;;;5115517;28;20016;-74
2020/12/19 07:15:48;;;;;;;18.70;6.80;;;6.00;99.90;;;;;;5116857;27;20028;-74
2020/12/19 07:18:37;;;;;;;16.23;6.55;;;6.00;99.90;;;;;;5115396;28;20028;-75
2020/12/19 07:21:10;;;;;;;13.20;5.60;;;6.10;99.90;;;;;;5114830;28;20468;-73
2020/12/19 07:23:39;;;;;;;16.80;6.97;;;6.00;99.90;;;;;;5114835;28;20480;-75
2020/12/19 07:28:33;;;;;;;14.30;6.32;;;6.10;99.90;;;;;;5056373;28;20041;-73
2020/12/19 07:30:59;;;;;;;13.85;5.60;;;6.10;99.90;;;;;;5075666;28;20028;-75
2020/12/19 07:33:25;;;;;;;12.98;5.90;;;6.10;99.90;;;;;;5075793;28;20522;-76
2020/12/19 07:35:56;;;;;;;16.00;6.25;;;6.20;99.90;;;;;;5075787;28;20017;-76
2020/12/19 07:38:22;;;;;;;13.43;5.07;;;6.20;99.90;;;;;;5075747;28;20025;-75
2020/12/19 07:40:57;;;;;;;12.80;5.40;;;6.20;99.90;;;;;;5076037;28;20497;-75
2020/12/19 07:43:25;;;;;;;16.90;5.60;;;6.20;99.90;;;;;;5074321;28;20079;-76
2020/12/19 07:46:00;;;;;;;12.57;5.07;;;6.30;99.90;;;;;;5074480;28;20024;-75
2020/12/19 07:48:27;;;;;;;12.35;6.03;;;6.30;99.90;;;;;;5074228;28;20035;-76
2020/12/19 07:50:52;;;;;;;11.48;5.28;;;6.30;99.90;;;;;;5073985;28;20485;-75
2020/12/19 07:53:18;;;;;;;15.25;6.43;;;6.30;99.90;;;;;;5073823;28;20028;-76
2020/12/19 07:55:51;;;;;;;12.25;5.22;;;6.30;99.90;;;;;;5076071;28;20031;-75
2020/12/19 07:58:19;;;;;;;12.65;4.82;;;6.40;99.90;;;;;;5075333;28;20438;-75
2020/12/19 08:00:44;;;;;;;20.38;5.63;;;6.50;99.90;;;;;;5073619;28;20062;-76
2020/12/19 08:03:11;;;;;;;11.90;5.65;;;6.40;99.90;;;;;;5075741;28;20477;-75
2020/12/19 08:05:37;;;;;;;13.25;5.53;;;6.50;99.90;;;;;;5075424;28;20035;-75
2020/12/19 08:08:02;;;;;;;14.13;6.15;;;6.50;99.90;;;;;;5075015;28;20021;-76
2020/12/19 08:10:28;;;;;;;11.00;4.95;;;6.50;99.90;;;;;;5074063;28;20082;-76
2020/12/19 08:12:53;;;;;;;12.52;5.43;;;6.50;99.90;;;;;;5073772;28;20025;-75
2020/12/19 08:15:23;;;;;;;15.77;5.45;;;6.50;99.90;;;;;;5075576;28;20107;-76
2020/12/19 08:18:01;;;;;;;10.82;4.10;;;6.60;99.90;;;;;;5074147;28;20016;-76
2020/12/19 08:20:31;;;;;;;11.27;4.68;;;6.60;99.90;;;;;;5075286;28;20103;-76
2020/12/19 08:23:02;;;;;;;9.05;4.93;;;6.60;99.90;;;;;;5075059;28;20021;-76
2020/12/19 08:25:28;;;;;;;10.80;4.60;;;6.70;99.90;;;;;;5074359;28;20056;-75
2020/12/19 08:27:53;;;;;;;13.48;5.50;;;6.70;99.90;;;;;;5075693;28;20400;-75
2020/12/19 08:30:25;;;;;;;13.27;5.80;;;6.70;99.90;;;;;;5076147;28;20111;-74
2020/12/19 08:33:03;;;;;;;12.18;5.28;;;6.80;99.90;;;;;;5075189;28;20109;-75
2020/12/19 08:35:30;;;;;;;12.75;5.65;;;6.90;99.90;;;;;;5074793;28;20031;-75
2020/12/19 08:38:08;;;;;;;13.05;5.55;;;6.90;99.90;;;;;;5076578;28;20377;-74
2020/12/19 08:40:36;;;;;;;11.60;5.25;;;6.90;99.90;;;;;;5077344;28;20024;-76
2020/12/19 08:43:01;;;;;;;11.10;5.10;;;7.00;99.90;;;;;;5075565;28;20107;-76
2020/12/19 08:45:29;;;;;;;15.00;5.45;;;7.10;99.90;;;;;;5073823;28;20060;-75
2020/12/19 08:48:01;;;;;;;9.35;4.38;;;7.10;99.90;;;;;;5075947;28;20032;-76
2020/12/19 08:50:29;;;;;;;12.10;5.53;;;7.20;99.90;;;;;;5075662;28;20056;-76
2020/12/19 08:53:30;;;;;;;12.60;5.35;;;7.30;99.90;;;;;;5075821;28;20047;-76
2020/12/19 08:55:56;;;;;;;12.02;5.15;;;7.40;99.90;;;;;;4994583;28;20526;-76
2020/12/19 08:58:31;;;;;;;10.63;5.05;;;7.40;99.90;;;;;;5059270;28;20112;-76
2020/12/19 09:00:58;;;;;;;9.32;4.65;;;7.50;99.90;;;;;;5076051;28;20052;-76
2020/12/19 09:03:34;;;;;;;10.77;5.15;;;7.60;99.90;;;;;;5074975;28;20028;-76
2020/12/19 09:06:08;;;;;;;10.45;5.28;;;7.70;99.90;;;;;;5074595;28;20024;-75
2020/12/19 09:08:39;;;;;;;11.73;5.22;;;7.70;99.90;;;;;;5075846;28;20052;-76
2020/12/19 09:11:07;;;;;;;12.15;4.50;;;7.80;99.90;;;;;;5075689;28;20024;-76
2020/12/19 09:13:33;;;;;;;11.23;4.80;;;7.90;99.90;;;;;;5071956;28;20032;-76
2020/12/19 09:16:10;;;;;;;8.07;4.60;;;8.00;99.90;;;;;;5072658;28;20024;-75
2020/12/19 09:18:37;;;;;;;8.27;4.85;;;8.10;99.90;;;;;;5074454;28;20028;-76
2020/12/19 09:21:04;;;;;;;9.13;4.78;;;8.20;99.90;;;;;;5077496;28;20017;-76
2020/12/19 09:23:30;;;;;;;9.73;5.25;;;8.30;99.90;;;;;;5079972;28;20032;-76
2020/12/19 09:25:58;;;;;;;10.00;4.75;;;8.30;99.90;;;;;;5078879;28;20021;-75
2020/12/19 09:28:24;;;;;;;11.67;5.63;;;8.40;99.90;;;;;;5080275;28;20039;-76
2020/12/19 09:30:56;;;;;;;11.35;4.63;;;8.40;99.90;;;;;;5078374;28;20546;-76
2020/12/19 09:33:22;;;;;;;9.52;4.95;;;8.40;99.90;;;;;;5059511;28;20068;-78
2020/12/19 09:35:49;;;;;;;9.20;4.05;;;8.40;99.90;;;;;;5075097;28;20052;-78
2020/12/19 09:38:15;;;;;;;10.88;4.78;;;8.40;99.90;;;;;;5077644;28;20479;-75
2020/12/19 09:40:41;;;;;;;10.75;4.55;;;8.50;99.90;;;;;;5078838;28;20024;-75
2020/12/19 09:43:08;;;;;;;11.60;4.63;;;8.50;99.90;;;;;;5077638;28;20025;-77
2020/12/19 09:45:34;;;;;;;13.82;5.00;;;8.60;99.90;;;;;;5076758;28;20453;-77
2020/12/19 09:48:00;;;;;;;10.98;4.35;;;8.60;99.90;;;;;;5078285;28;20046;-76
2020/12/19 09:50:27;;;;;;;9.18;4.57;;;8.60;99.90;;;;;;5077095;28;20033;-76
2020/12/19 09:52:53;;;;;;;11.48;4.80;;;8.70;99.90;;;;;;5079321;28;20025;-76
2020/12/19 09:55:20;;;;;;;8.88;4.43;;;8.70;99.90;;;;;;5079114;28;20122;-76
2020/12/19 09:57:46;;;;;;;10.10;4.63;;;8.70;99.90;;;;;;5078687;28;20020;-76
2020/12/19 10:00:14;;;;;;;8.93;4.25;;;8.80;99.90;;;;;;5077299;28;20021;-76
2020/12/19 10:02:41;;;;;;;10.70;5.05;;;8.80;99.90;;;;;;5079294;28;20044;-76
2020/12/19 10:05:07;;;;;;;11.43;4.35;;;8.80;99.90;;;;;;5076987;28;20066;-74
2020/12/19 10:07:33;;;;;;;10.50;4.55;;;8.90;99.90;;;;;;5078332;28;20040;-75
2020/12/19 10:09:59;;;;;;;12.10;4.68;;;8.90;99.90;;;;;;5078489;28;20021;-75
2020/12/19 10:12:25;;;;;;;8.60;3.75;;;9.00;99.90;;;;;;5079000;28;20035;-75
2020/12/19 10:14:51;;;;;;;7.72;4.00;;;9.00;99.90;;;;;;5077895;28;20074;-75
2020/12/19 10:17:16;;;;;;;10.95;4.43;;;9.00;99.90;;;;;;5077201;28;20020;-75
2020/12/19 10:19:42;;;;;;;7.72;3.20;;;9.10;99.90;;;;;;5077057;28;20051;-75
2020/12/19 10:22:07;;;;;;;9.05;3.80;;;9.10;99.90;;;;;;5078109;28;20074;-75
2020/12/19 10:24:33;;;;;;;7.85;3.88;;;9.10;99.90;;;;;;5078967;28;20033;-75
2020/12/19 10:26:59;;;;;;;9.23;4.10;;;9.20;99.90;;;;;;5079777;28;20029;-75
2020/12/19 10:29:24;;;;;;;11.20;4.70;;;9.20;99.90;;;;;;5077878;28;20029;-75
2020/12/19 10:31:50;;;;;;;9.13;4.32;;;9.30;99.90;;;;;;5076176;28;20028;-75
2020/12/19 10:34:16;;;;;;;8.05;3.63;;;9.30;99.90;;;;;;5077758;28;20030;-75
2020/12/19 10:36:41;;;;;;;7.35;4.60;;;9.40;99.90;;;;;;5076460;28;20098;-75
2020/12/19 10:39:07;;;;;;;9.68;3.35;;;9.40;99.90;;;;;;5078094;28;20050;-75
2020/12/19 10:41:32;;;;;;;8.38;3.47;;;9.40;99.90;;;;;;5077505;28;20043;-75
2020/12/19 10:43:58;;;;;;;8.95;3.80;;;9.50;99.90;;;;;;5076933;28;20024;-75
2020/12/19 10:46:25;;;;;;;8.50;3.92;;;9.60;99.90;;;;;;5076767;28;20177;-75
2020/12/19 10:48:52;;;;;;;12.48;4.35;;;9.50;99.90;;;;;;5077635;28;20044;-75
2020/12/19 10:51:28;;;;;;;8.00;4.43;;;9.60;99.90;;;;;;5076324;28;20025;-75
2020/12/19 10:53:54;;;;;;;12.48;5.22;;;9.60;99.90;;;;;;5075716;28;20027;-75
2020/12/19 10:56:21;;;;;;;8.60;4.30;;;9.60;99.90;;;;;;5077413;28;20534;-75
2020/12/19 10:58:47;;;;;;;11.82;4.25;;;9.70;99.90;;;;;;5076351;28;20035;-76
2020/12/19 11:01:12;;;;;;;8.10;4.60;;;9.70;99.90;;;;;;5076781;28;20025;-75
2020/12/19 11:03:40;;;;;;;10.10;3.58;;;9.80;99.90;;;;;;5075815;28;20025;-75
2020/12/19 11:06:06;;;;;;;9.73;4.07;;;9.90;99.90;;;;;;5076387;28;20444;-75
2020/12/19 11:08:31;;;;;;;10.52;3.58;;;9.90;99.90;;;;;;5077920;28;20055;-75
2020/12/19 11:10:57;;;;;;;7.80;3.53;;;10.00;99.90;;;;;;5077741;28;20028;-76
2020/12/19 11:13:22;;;;;;;7.85;3.60;;;10.00;99.90;;;;;;5076061;28;20020;-75
2020/12/19 11:15:48;;;;;;;6.65;3.25;;;10.10;99.90;;;;;;5076412;28;20021;-75
2020/12/19 11:18:13;;;;;;;6.07;2.95;;;10.20;99.90;;;;;;5077382;28;20017;-75
2020/12/19 11:20:39;;;;;;;9.57;3.40;;;10.20;99.90;;;;;;5076020;28;20020;-75
2020/12/19 11:23:04;;;;;;;7.60;3.72;;;10.30;99.90;;;;;;5077244;28;20028;-75
2020/12/19 11:25:30;;;;;;;5.97;3.10;;;10.30;99.90;;;;;;5076907;28;20024;-75
2020/12/19 11:27:55;;;;;;;8.20;2.92;;;10.40;99.90;;;;;;5076756;28;20107;-75
2020/12/19 11:30:21;;;;;;;8.60;3.03;;;10.40;99.90;;;;;;5077172;28;20107;-75
2020/12/19 11:32:46;;;;;;;7.70;3.33;;;10.50;99.90;;;;;;5077059;28;20388;-75
2020/12/19 11:35:12;;;;;;;7.72;3.03;;;10.60;99.90;;;;;;5075980;28;20055;-75
2020/12/19 11:37:37;;;;;;;9.25;3.45;;;10.50;99.90;;;;;;5075366;28;20032;-75
2020/12/19 11:40:04;;;;;;;7.03;3.42;;;10.50;99.90;;;;;;5077207;28;20029;-75
2020/12/19 11:42:29;;;;;;;8.18;3.50;;;10.50;99.90;;;;;;5077797;28;20017;-75
2020/12/19 11:44:55;;;;;;;5.35;3.13;;;10.50;99.90;;;;;;5076902;28;20082;-75
2020/12/19 11:47:20;;;;;;;6.20;2.60;;;10.50;99.90;;;;;;5077233;28;20123;-75
2020/12/19 11:49:46;;;;;;;6.63;3.00;;;10.40;99.90;;;;;;5075627;28;20040;-76
2020/12/19 11:52:11;;;;;;;7.30;2.63;;;10.50;99.90;;;;;;5076380;28;20027;-76
2020/12/19 11:54:37;;;;;;;5.75;2.15;;;10.40;99.90;;;;;;5076517;28;20016;-76
2020/12/19 11:57:03;;;;;;;7.80;1.95;;;10.50;99.90;;;;;;5076754;28;20484;-76
2020/12/19 11:59:29;;;;;;;5.35;1.73;;;10.50;99.90;;;;;;5075359;28;20115;-76
2020/12/19 12:01:55;;;;;;;6.38;2.10;;;10.60;99.90;;;;;;5075682;28;20055;-76
2020/12/19 12:04:20;;;;;;;2.85;1.40;;;10.60;99.90;;;;;;5076115;28;20028;-76
2020/12/19 12:06:46;;;;;;;3.08;1.65;;;10.70;99.90;;;;;;5076663;28;20027;-76
2020/12/19 12:09:12;;;;;;;7.07;1.27;;;10.70;99.90;;;;;;5077060;28;20100;-76
2020/12/19 12:11:38;;;;;;;7.35;1.45;;;10.80;99.90;;;;;;5075015;28;20032;-77
2020/12/19 12:14:05;;;;;;;9.55;2.03;;;10.80;99.90;;;;;;5076555;28;20027;-75
2020/12/19 12:16:31;;;;;;;3.20;1.23;;;10.80;99.90;;;;;;5077454;28;20030;-74
2020/12/19 12:18:57;;;;;;;2.65;1.42;;;10.80;99.90;;;;;;5076004;28;20052;-75
2020/12/19 12:21:23;;;;;;;4.50;1.23;;;10.90;99.90;;;;;;5076115;28;20009;-76
2020/12/19 12:23:49;;;;;;;3.30;1.33;;;10.80;99.90;;;;;;5075876;28;20032;-76
2020/12/19 12:26:24;;;;;;;1.85;1.05;;;10.90;99.90;;;;;;5076387;28;20029;-76
2020/12/19 12:28:50;;;;;;;3.50;1.25;;;10.90;99.90;;;;;;5074607;28;20036;-76
2020/12/19 12:31:23;;;;;;;2.13;1.02;;;10.90;99.90;;;;;;5075003;28;20024;-76
2020/12/19 12:33:49;;;;;;;3.25;0.93;;;11.00;99.90;;;;;;5075732;28;20060;-76
2020/12/19 12:36:14;;;;;;;2.47;0.80;;;11.00;99.90;;;;;;5075065;28;20028;-76
2020/12/19 12:38:40;;;;;;;3.03;0.45;;;11.00;99.90;;;;;;5075314;28;20028;-76
2020/12/19 12:41:06;;;;;;;3.58;0.85;;;10.90;99.90;;;;;;5074433;28;20023;-75
2020/12/19 12:43:32;;;;;;;3.95;1.10;;;11.00;99.90;;;;;;5073072;28;20036;-75
2020/12/19 12:45:58;;;;;;;3.17;0.52;;;11.00;99.90;;;;;;5075742;28;20024;-75
2020/12/19 12:48:23;;;;;;;4.97;0.93;;;11.00;99.90;;;;;;5075500;28;20047;-75
2020/12/19 12:50:51;;;;;;;3.03;0.40;;;11.00;99.90;;;;;;5074460;28;20487;-75